sensor_id;sensor_type;location;lat;lon;timestamp;temperature;humidity
76168;DHT22;64927;48.214;16.378;2022-12-05T00:03:51;7.00;78.50
76168;DHT22;64927;48.214;16.378;2022-12-05T00:06:18;7.00;78.30
76168;DHT22;64927;48.214;16.378;2022-12-05T00:08:44;7.00;78.50
76168;DHT22;64927;48.214;16.378;2022-12-05T00:11:18;7.10;78.50
76168;DHT22;64927;48.214;16.378;2022-12-05T00:13:50;7.10;78.20
76168;DHT22;64927;48.214;16.378;2022-12-05T00:16:22;7.10;78.10
76168;DHT22;64927;48.214;16.378;2022-12-05T00:18:48;7.10;78.40
76168;DHT22;64927;48.214;16.378;2022-12-05T00:21:20;7.10;78.30
76168;DHT22;64927;48.214;16.378;2022-12-05T00:23:46;7.10;78.00
76168;DHT22;64927;48.214;16.378;2022-12-05T00:26:12;7.00;78.20
76168;DHT22;64927;48.214;16.378;2022-12-05T00:28:38;7.10;78.20
76168;DHT22;64927;48.214;16.378;2022-12-05T00:31:14;7.10;78.30
76168;DHT22;64927;48.214;16.378;2022-12-05T00:33:43;7.10;78.40
76168;DHT22;64927;48.214;16.378;2022-12-05T00:36:13;7.10;78.60
76168;DHT22;64927;48.214;16.378;2022-12-05T00:38:40;7.10;78.40
76168;DHT22;64927;48.214;16.378;2022-12-05T00:41:09;7.00;78.60
76168;DHT22;64927;48.214;16.378;2022-12-05T00:43:36;7.00;78.90
76168;DHT22;64927;48.214;16.378;2022-12-05T00:46:07;7.00;78.90
76168;DHT22;64927;48.214;16.378;2022-12-05T00:48:36;6.90;79.60
76168;DHT22;64927;48.214;16.378;2022-12-05T00:51:12;6.90;79.70
76168;DHT22;64927;48.214;16.378;2022-12-05T00:53:37;7.00;79.60
76168;DHT22;64927;48.214;16.378;2022-12-05T00:56:08;6.90;79.60
76168;DHT22;64927;48.214;16.378;2022-12-05T00:58:34;6.90;79.40
76168;DHT22;64927;48.214;16.378;2022-12-05T01:01:18;7.00;79.30
76168;DHT22;64927;48.214;16.378;2022-12-05T01:03:45;7.00;79.30
76168;DHT22;64927;48.214;16.378;2022-12-05T01:06:14;6.90;79.50
76168;DHT22;64927;48.214;16.378;2022-12-05T01:08:41;6.90;79.60
76168;DHT22;64927;48.214;16.378;2022-12-05T01:11:10;6.90;79.50
76168;DHT22;64927;48.214;16.378;2022-12-05T01:13:36;6.90;79.80
76168;DHT22;64927;48.214;16.378;2022-12-05T01:16:02;7.00;79.70
76168;DHT22;64927;48.214;16.378;2022-12-05T01:18:29;7.00;79.10
76168;DHT22;64927;48.214;16.378;2022-12-05T01:20:55;7.10;78.70
76168;DHT22;64927;48.214;16.378;2022-12-05T01:23:21;7.00;78.90
76168;DHT22;64927;48.214;16.378;2022-12-05T01:25:51;7.00;78.50
76168;DHT22;64927;48.214;16.378;2022-12-05T01:28:19;7.00;78.40
76168;DHT22;64927;48.214;16.378;2022-12-05T01:30:47;7.10;78.20
76168;DHT22;64927;48.214;16.378;2022-12-05T01:33:12;7.20;78.10
76168;DHT22;64927;48.214;16.378;2022-12-05T01:35:39;7.20;77.70
76168;DHT22;64927;48.214;16.378;2022-12-05T01:38:05;7.20;77.80
76168;DHT22;64927;48.214;16.378;2022-12-05T01:40:33;7.20;77.40
76168;DHT22;64927;48.214;16.378;2022-12-05T01:43:02;7.20;77.50
76168;DHT22;64927;48.214;16.378;2022-12-05T01:45:36;7.20;77.50
76168;DHT22;64927;48.214;16.378;2022-12-05T01:48:06;7.30;77.10
76168;DHT22;64927;48.214;16.378;2022-12-05T01:50:33;7.40;76.80
76168;DHT22;64927;48.214;16.378;2022-12-05T01:53:00;7.30;77.20
76168;DHT22;64927;48.214;16.378;2022-12-05T01:55:27;7.40;77.30
76168;DHT22;64927;48.214;16.378;2022-12-05T01:57:55;7.40;77.30
76168;DHT22;64927;48.214;16.378;2022-12-05T02:00:24;7.40;77.00
76168;DHT22;64927;48.214;16.378;2022-12-05T02:02:52;7.40;77.30
76168;DHT22;64927;48.214;16.378;2022-12-05T02:05:28;7.30;77.30
76168;DHT22;64927;48.214;16.378;2022-12-05T02:07:57;7.40;77.40
76168;DHT22;64927;48.214;16.378;2022-12-05T02:10:28;7.40;77.30
76168;DHT22;64927;48.214;16.378;2022-12-05T02:13:02;7.40;77.00
76168;DHT22;64927;48.214;16.378;2022-12-05T02:15:44;7.50;77.00
76168;DHT22;64927;48.214;16.378;2022-12-05T02:32:09;7.50;76.60
76168;DHT22;64927;48.214;16.378;2022-12-05T02:34:46;7.40;77.00
76168;DHT22;64927;48.214;16.378;2022-12-05T02:37:43;7.40;77.10
76168;DHT22;64927;48.214;16.378;2022-12-05T02:42:58;7.30;76.50
76168;DHT22;64927;48.214;16.378;2022-12-05T02:45:25;7.40;76.80
76168;DHT22;64927;48.214;16.378;2022-12-05T02:47:53;7.30;76.30
76168;DHT22;64927;48.214;16.378;2022-12-05T02:50:24;7.30;75.70
76168;DHT22;64927;48.214;16.378;2022-12-05T02:52:56;7.30;76.10
76168;DHT22;64927;48.214;16.378;2022-12-05T02:55:25;7.20;76.10
76168;DHT22;64927;48.214;16.378;2022-12-05T02:57:56;7.20;76.10
76168;DHT22;64927;48.214;16.378;2022-12-05T03:00:22;7.00;76.30
76168;DHT22;64927;48.214;16.378;2022-12-05T03:02:51;6.90;76.70
76168;DHT22;64927;48.214;16.378;2022-12-05T03:05:35;6.90;77.00
76168;DHT22;64927;48.214;16.378;2022-12-05T03:08:05;6.90;77.00
76168;DHT22;64927;48.214;16.378;2022-12-05T03:10:33;6.90;77.00
76168;DHT22;64927;48.214;16.378;2022-12-05T03:13:06;6.80;77.20
76168;DHT22;64927;48.214;16.378;2022-12-05T03:15:41;6.90;77.40
76168;DHT22;64927;48.214;16.378;2022-12-05T03:18:16;6.80;77.50
76168;DHT22;64927;48.214;16.378;2022-12-05T03:20:51;6.90;77.40
76168;DHT22;64927;48.214;16.378;2022-12-05T03:29:12;7.00;77.40
76168;DHT22;64927;48.214;16.378;2022-12-05T03:31:54;7.00;77.10
76168;DHT22;64927;48.214;16.378;2022-12-05T03:37:34;7.00;76.30
76168;DHT22;64927;48.214;16.378;2022-12-05T03:40:22;7.00;76.60
76168;DHT22;64927;48.214;16.378;2022-12-05T03:45:46;7.00;76.70
76168;DHT22;64927;48.214;16.378;2022-12-05T03:50:48;7.00;76.50
76168;DHT22;64927;48.214;16.378;2022-12-05T03:53:19;6.90;76.70
76168;DHT22;64927;48.214;16.378;2022-12-05T03:55:53;6.90;76.90
76168;DHT22;64927;48.214;16.378;2022-12-05T03:58:37;6.70;77.30
76168;DHT22;64927;48.214;16.378;2022-12-05T04:01:08;6.90;77.00
76168;DHT22;64927;48.214;16.378;2022-12-05T04:04:02;6.90;76.90
76168;DHT22;64927;48.214;16.378;2022-12-05T04:06:35;6.80;77.10
76168;DHT22;64927;48.214;16.378;2022-12-05T04:09:09;6.90;77.10
76168;DHT22;64927;48.214;16.378;2022-12-05T04:11:39;6.80;77.10
76168;DHT22;64927;48.214;16.378;2022-12-05T04:14:12;6.90;77.10
76168;DHT22;64927;48.214;16.378;2022-12-05T04:17:03;6.90;77.10
76168;DHT22;64927;48.214;16.378;2022-12-05T04:22:24;7.00;77.10
76168;DHT22;64927;48.214;16.378;2022-12-05T04:24:51;7.00;76.60
76168;DHT22;64927;48.214;16.378;2022-12-05T04:30:21;7.10;75.90
76168;DHT22;64927;48.214;16.378;2022-12-05T04:33:17;7.00;75.90
76168;DHT22;64927;48.214;16.378;2022-12-05T04:35:52;7.00;76.20
76168;DHT22;64927;48.214;16.378;2022-12-05T04:41:39;6.90;76.40
76168;DHT22;64927;48.214;16.378;2022-12-05T04:44:12;6.90;76.50
76168;DHT22;64927;48.214;16.378;2022-12-05T04:46:41;6.80;77.00
76168;DHT22;64927;48.214;16.378;2022-12-05T04:49:11;6.90;76.90
76168;DHT22;64927;48.214;16.378;2022-12-05T04:51:39;6.80;76.80
76168;DHT22;64927;48.214;16.378;2022-12-05T04:54:17;6.90;76.40
76168;DHT22;64927;48.214;16.378;2022-12-05T04:56:45;6.90;76.70
76168;DHT22;64927;48.214;16.378;2022-12-05T04:59:13;6.80;76.80
76168;DHT22;64927;48.214;16.378;2022-12-05T05:01:44;6.90;76.70
76168;DHT22;64927;48.214;16.378;2022-12-05T05:04:25;6.90;76.50
76168;DHT22;64927;48.214;16.378;2022-12-05T05:06:51;6.80;77.00
76168;DHT22;64927;48.214;16.378;2022-12-05T05:09:17;6.90;76.50
76168;DHT22;64927;48.214;16.378;2022-12-05T05:11:42;6.80;76.50
76168;DHT22;64927;48.214;16.378;2022-12-05T05:14:08;6.80;76.90
76168;DHT22;64927;48.214;16.378;2022-12-05T05:16:36;6.80;77.00
76168;DHT22;64927;48.214;16.378;2022-12-05T05:19:03;6.90;76.40
76168;DHT22;64927;48.214;16.378;2022-12-05T05:21:41;6.90;76.30
76168;DHT22;64927;48.214;16.378;2022-12-05T05:24:09;7.00;76.60
76168;DHT22;64927;48.214;16.378;2022-12-05T05:26:39;7.00;76.00
76168;DHT22;64927;48.214;16.378;2022-12-05T05:29:05;7.00;76.00
76168;DHT22;64927;48.214;16.378;2022-12-05T05:31:31;7.00;75.80
76168;DHT22;64927;48.214;16.378;2022-12-05T05:33:58;6.90;76.10
76168;DHT22;64927;48.214;16.378;2022-12-05T05:36:25;6.90;76.40
76168;DHT22;64927;48.214;16.378;2022-12-05T05:38:55;6.80;76.70
76168;DHT22;64927;48.214;16.378;2022-12-05T05:41:24;6.90;76.50
76168;DHT22;64927;48.214;16.378;2022-12-05T05:43:52;6.90;76.50
76168;DHT22;64927;48.214;16.378;2022-12-05T05:46:23;6.90;76.60
76168;DHT22;64927;48.214;16.378;2022-12-05T05:48:49;6.80;76.50
76168;DHT22;64927;48.214;16.378;2022-12-05T05:51:17;6.80;76.50
76168;DHT22;64927;48.214;16.378;2022-12-05T05:53:43;6.80;76.50
76168;DHT22;64927;48.214;16.378;2022-12-05T05:56:14;6.90;76.70
76168;DHT22;64927;48.214;16.378;2022-12-05T05:58:40;6.90;76.10
76168;DHT22;64927;48.214;16.378;2022-12-05T06:01:17;6.90;76.10
76168;DHT22;64927;48.214;16.378;2022-12-05T06:03:45;6.80;76.50
76168;DHT22;64927;48.214;16.378;2022-12-05T06:06:13;6.80;76.60
76168;DHT22;64927;48.214;16.378;2022-12-05T06:08:41;6.70;77.00
76168;DHT22;64927;48.214;16.378;2022-12-05T06:11:14;6.90;76.70
76168;DHT22;64927;48.214;16.378;2022-12-05T06:13:43;6.80;76.70
76168;DHT22;64927;48.214;16.378;2022-12-05T06:16:10;6.80;76.90
76168;DHT22;64927;48.214;16.378;2022-12-05T06:18:36;6.70;77.10
76168;DHT22;64927;48.214;16.378;2022-12-05T06:21:02;6.80;77.30
76168;DHT22;64927;48.214;16.378;2022-12-05T06:23:28;6.80;77.20
76168;DHT22;64927;48.214;16.378;2022-12-05T06:25:55;6.90;76.90
76168;DHT22;64927;48.214;16.378;2022-12-05T06:28:22;6.80;77.00
76168;DHT22;64927;48.214;16.378;2022-12-05T06:30:49;6.90;77.00
76168;DHT22;64927;48.214;16.378;2022-12-05T06:33:15;7.00;76.70
76168;DHT22;64927;48.214;16.378;2022-12-05T06:35:41;7.00;76.20
76168;DHT22;64927;48.214;16.378;2022-12-05T06:38:09;7.00;76.50
76168;DHT22;64927;48.214;16.378;2022-12-05T06:40:39;6.90;77.20
76168;DHT22;64927;48.214;16.378;2022-12-05T06:43:05;6.90;77.00
76168;DHT22;64927;48.214;16.378;2022-12-05T06:45:33;6.90;77.10
76168;DHT22;64927;48.214;16.378;2022-12-05T06:47:58;6.90;77.10
76168;DHT22;64927;48.214;16.378;2022-12-05T06:50:24;6.90;77.30
76168;DHT22;64927;48.214;16.378;2022-12-05T06:52:50;7.10;76.90
76168;DHT22;64927;48.214;16.378;2022-12-05T06:55:18;7.10;76.50
76168;DHT22;64927;48.214;16.378;2022-12-05T06:57:44;7.00;76.50
76168;DHT22;64927;48.214;16.378;2022-12-05T07:00:10;7.00;77.20
76168;DHT22;64927;48.214;16.378;2022-12-05T07:02:56;7.10;78.10
76168;DHT22;64927;48.214;16.378;2022-12-05T07:05:24;7.30;77.70
76168;DHT22;64927;48.214;16.378;2022-12-05T07:07:52;7.40;76.00
76168;DHT22;64927;48.214;16.378;2022-12-05T07:10:18;7.30;75.90
76168;DHT22;64927;48.214;16.378;2022-12-05T07:12:43;7.30;75.50
76168;DHT22;64927;48.214;16.378;2022-12-05T07:15:09;7.20;76.20
76168;DHT22;64927;48.214;16.378;2022-12-05T07:17:37;7.10;76.40
76168;DHT22;64927;48.214;16.378;2022-12-05T07:20:04;7.10;76.30
76168;DHT22;64927;48.214;16.378;2022-12-05T07:22:30;7.10;76.60
76168;DHT22;64927;48.214;16.378;2022-12-05T07:24:58;7.10;76.50
76168;DHT22;64927;48.214;16.378;2022-12-05T07:27:24;7.00;76.70
76168;DHT22;64927;48.214;16.378;2022-12-05T07:29:52;7.00;77.10
76168;DHT22;64927;48.214;16.378;2022-12-05T07:32:18;7.00;77.10
76168;DHT22;64927;48.214;16.378;2022-12-05T07:34:43;7.00;77.20
76168;DHT22;64927;48.214;16.378;2022-12-05T07:37:09;7.10;77.50
76168;DHT22;64927;48.214;16.378;2022-12-05T07:39:34;7.20;76.70
76168;DHT22;64927;48.214;16.378;2022-12-05T07:42:00;7.20;76.80
76168;DHT22;64927;48.214;16.378;2022-12-05T07:44:28;7.30;76.80
76168;DHT22;64927;48.214;16.378;2022-12-05T07:46:54;7.30;76.30
76168;DHT22;64927;48.214;16.378;2022-12-05T07:49:19;7.30;76.20
76168;DHT22;64927;48.214;16.378;2022-12-05T07:51:45;7.30;76.30
76168;DHT22;64927;48.214;16.378;2022-12-05T07:54:13;7.30;76.50
76168;DHT22;64927;48.214;16.378;2022-12-05T07:56:38;7.30;76.60
76168;DHT22;64927;48.214;16.378;2022-12-05T07:59:04;7.30;76.30
76168;DHT22;64927;48.214;16.378;2022-12-05T08:01:30;7.30;76.50
76168;DHT22;64927;48.214;16.378;2022-12-05T08:03:58;7.30;76.30
76168;DHT22;64927;48.214;16.378;2022-12-05T08:06:26;7.40;76.50
76168;DHT22;64927;48.214;16.378;2022-12-05T08:08:55;7.40;76.30
76168;DHT22;64927;48.214;16.378;2022-12-05T08:11:25;7.40;76.20
76168;DHT22;64927;48.214;16.378;2022-12-05T08:13:52;7.40;76.20
76168;DHT22;64927;48.214;16.378;2022-12-05T08:16:20;7.30;76.60
76168;DHT22;64927;48.214;16.378;2022-12-05T08:18:47;7.30;76.50
76168;DHT22;64927;48.214;16.378;2022-12-05T08:21:15;7.40;76.50
76168;DHT22;64927;48.214;16.378;2022-12-05T08:23:42;7.30;76.60
76168;DHT22;64927;48.214;16.378;2022-12-05T08:26:15;7.40;76.80
76168;DHT22;64927;48.214;16.378;2022-12-05T08:28:42;7.50;76.40
76168;DHT22;64927;48.214;16.378;2022-12-05T08:31:13;7.50;76.00
76168;DHT22;64927;48.214;16.378;2022-12-05T08:33:42;7.60;76.30
76168;DHT22;64927;48.214;16.378;2022-12-05T08:36:11;7.60;75.80
76168;DHT22;64927;48.214;16.378;2022-12-05T08:38:37;7.60;76.00
76168;DHT22;64927;48.214;16.378;2022-12-05T08:41:04;7.60;76.10
76168;DHT22;64927;48.214;16.378;2022-12-05T08:43:30;7.50;76.30
76168;DHT22;64927;48.214;16.378;2022-12-05T08:45:57;7.60;76.30
76168;DHT22;64927;48.214;16.378;2022-12-05T08:48:24;7.50;76.00
76168;DHT22;64927;48.214;16.378;2022-12-05T08:50:54;7.40;76.50
76168;DHT22;64927;48.214;16.378;2022-12-05T08:53:22;7.60;76.50
76168;DHT22;64927;48.214;16.378;2022-12-05T08:55:47;7.40;76.50
76168;DHT22;64927;48.214;16.378;2022-12-05T08:58:13;7.40;77.00
76168;DHT22;64927;48.214;16.378;2022-12-05T09:00:40;7.30;77.10
76168;DHT22;64927;48.214;16.378;2022-12-05T09:03:06;7.40;77.30
76168;DHT22;64927;48.214;16.378;2022-12-05T09:05:31;7.40;77.00
76168;DHT22;64927;48.214;16.378;2022-12-05T09:07:57;7.50;76.90
76168;DHT22;64927;48.214;16.378;2022-12-05T09:10:25;7.60;76.40
76168;DHT22;64927;48.214;16.378;2022-12-05T09:12:53;7.60;76.30
76168;DHT22;64927;48.214;16.378;2022-12-05T09:15:19;7.60;76.90
76168;DHT22;64927;48.214;16.378;2022-12-05T09:17:44;7.60;76.10
76168;DHT22;64927;48.214;16.378;2022-12-05T09:20:12;7.60;76.30
76168;DHT22;64927;48.214;16.378;2022-12-05T09:22:39;7.60;76.30
76168;DHT22;64927;48.214;16.378;2022-12-05T09:25:06;7.70;76.40
76168;DHT22;64927;48.214;16.378;2022-12-05T09:27:31;7.70;75.90
76168;DHT22;64927;48.214;16.378;2022-12-05T09:29:57;7.80;76.00
76168;DHT22;64927;48.214;16.378;2022-12-05T09:32:25;7.80;75.50
76168;DHT22;64927;48.214;16.378;2022-12-05T09:34:53;7.70;75.80
76168;DHT22;64927;48.214;16.378;2022-12-05T09:37:18;7.80;76.10
76168;DHT22;64927;48.214;16.378;2022-12-05T09:39:44;7.80;75.90
76168;DHT22;64927;48.214;16.378;2022-12-05T09:42:19;7.70;75.80
76168;DHT22;64927;48.214;16.378;2022-12-05T09:44:55;7.70;76.70
76168;DHT22;64927;48.214;16.378;2022-12-05T09:47:47;7.70;76.40
76168;DHT22;64927;48.214;16.378;2022-12-05T09:50:40;7.70;76.30
76168;DHT22;64927;48.214;16.378;2022-12-05T09:53:09;7.70;76.10
76168;DHT22;64927;48.214;16.378;2022-12-05T09:55:44;7.70;76.30
76168;DHT22;64927;48.214;16.378;2022-12-05T10:01:08;7.90;75.70
76168;DHT22;64927;48.214;16.378;2022-12-05T10:03:42;7.90;75.80
76168;DHT22;64927;48.214;16.378;2022-12-05T10:06:30;7.90;75.60
76168;DHT22;64927;48.214;16.378;2022-12-05T10:20:53;7.80;75.90
76168;DHT22;64927;48.214;16.378;2022-12-05T10:26:03;7.70;76.50
76168;DHT22;64927;48.214;16.378;2022-12-05T10:28:34;7.80;76.80
76168;DHT22;64927;48.214;16.378;2022-12-05T10:31:10;7.80;75.60
76168;DHT22;64927;48.214;16.378;2022-12-05T10:33:42;7.90;75.60
76168;DHT22;64927;48.214;16.378;2022-12-05T10:36:12;8.00;75.30
76168;DHT22;64927;48.214;16.378;2022-12-05T10:38:39;8.00;75.10
76168;DHT22;64927;48.214;16.378;2022-12-05T10:41:10;8.10;74.50
76168;DHT22;64927;48.214;16.378;2022-12-05T10:43:39;8.10;74.40
76168;DHT22;64927;48.214;16.378;2022-12-05T10:46:06;8.10;74.70
76168;DHT22;64927;48.214;16.378;2022-12-05T10:48:39;8.20;74.80
76168;DHT22;64927;48.214;16.378;2022-12-05T10:51:05;8.20;74.50
76168;DHT22;64927;48.214;16.378;2022-12-05T10:53:44;8.20;74.50
76168;DHT22;64927;48.214;16.378;2022-12-05T10:56:35;8.40;74.20
76168;DHT22;64927;48.214;16.378;2022-12-05T10:59:01;8.40;73.60
76168;DHT22;64927;48.214;16.378;2022-12-05T11:01:27;8.40;73.60
76168;DHT22;64927;48.214;16.378;2022-12-05T11:03:58;8.30;73.60
76168;DHT22;64927;48.214;16.378;2022-12-05T11:06:27;8.30;74.10
76168;DHT22;64927;48.214;16.378;2022-12-05T11:08:57;8.30;73.70
76168;DHT22;64927;48.214;16.378;2022-12-05T11:11:28;8.30;73.80
76168;DHT22;64927;48.214;16.378;2022-12-05T11:14:05;8.30;74.10
76168;DHT22;64927;48.214;16.378;2022-12-05T11:16:37;8.40;73.90
76168;DHT22;64927;48.214;16.378;2022-12-05T11:19:34;8.40;73.30
76168;DHT22;64927;48.214;16.378;2022-12-05T11:22:04;8.30;73.80
76168;DHT22;64927;48.214;16.378;2022-12-05T11:24:38;8.20;74.00
76168;DHT22;64927;48.214;16.378;2022-12-05T11:27:23;8.30;74.40
76168;DHT22;64927;48.214;16.378;2022-12-05T11:30:13;8.30;74.20
76168;DHT22;64927;48.214;16.378;2022-12-05T11:32:41;8.40;74.00
76168;DHT22;64927;48.214;16.378;2022-12-05T11:37:57;8.30;74.30
76168;DHT22;64927;48.214;16.378;2022-12-05T11:52:00;8.10;75.60
76168;DHT22;64927;48.214;16.378;2022-12-05T12:00:32;8.20;75.30
76168;DHT22;64927;48.214;16.378;2022-12-05T12:15:01;7.80;77.40
76168;DHT22;64927;48.214;16.378;2022-12-05T12:26:13;7.70;78.10
76168;DHT22;64927;48.214;16.378;2022-12-05T12:31:30;7.70;77.90
76168;DHT22;64927;48.214;16.378;2022-12-05T12:34:27;7.70;78.00
76168;DHT22;64927;48.214;16.378;2022-12-05T12:37:19;7.80;78.10
76168;DHT22;64927;48.214;16.378;2022-12-05T12:45:42;7.50;78.50
76168;DHT22;64927;48.214;16.378;2022-12-05T12:50:51;7.40;79.30
76168;DHT22;64927;48.214;16.378;2022-12-05T13:02:16;7.60;78.50
76168;DHT22;64927;48.214;16.378;2022-12-05T13:05:06;7.70;78.20
76168;DHT22;64927;48.214;16.378;2022-12-05T13:07:39;7.80;77.90
76168;DHT22;64927;48.214;16.378;2022-12-05T13:12:49;7.80;77.70
76168;DHT22;64927;48.214;16.378;2022-12-05T13:15:21;7.80;78.00
76168;DHT22;64927;48.214;16.378;2022-12-05T13:17:53;7.70;78.30
76168;DHT22;64927;48.214;16.378;2022-12-05T13:20:21;7.70;78.60
76168;DHT22;64927;48.214;16.378;2022-12-05T13:22:49;7.70;78.80
76168;DHT22;64927;48.214;16.378;2022-12-05T13:25:18;7.70;78.80
76168;DHT22;64927;48.214;16.378;2022-12-05T13:27:56;7.70;78.70
76168;DHT22;64927;48.214;16.378;2022-12-05T13:30:23;7.80;78.50
76168;DHT22;64927;48.214;16.378;2022-12-05T13:33:02;7.80;78.60
76168;DHT22;64927;48.214;16.378;2022-12-05T13:35:34;7.80;78.60
76168;DHT22;64927;48.214;16.378;2022-12-05T13:38:27;7.70;78.90
76168;DHT22;64927;48.214;16.378;2022-12-05T13:41:13;7.70;79.40
76168;DHT22;64927;48.214;16.378;2022-12-05T13:44:00;7.70;79.50
76168;DHT22;64927;48.214;16.378;2022-12-05T13:46:33;7.70;80.40
76168;DHT22;64927;48.214;16.378;2022-12-05T13:49:19;7.50;81.30
76168;DHT22;64927;48.214;16.378;2022-12-05T13:51:50;7.40;80.90
76168;DHT22;64927;48.214;16.378;2022-12-05T13:54:27;7.40;81.60
76168;DHT22;64927;48.214;16.378;2022-12-05T13:56:56;7.40;81.70
76168;DHT22;64927;48.214;16.378;2022-12-05T14:07:44;7.40;81.80
76168;DHT22;64927;48.214;16.378;2022-12-05T14:10:17;7.30;81.90
76168;DHT22;64927;48.214;16.378;2022-12-05T14:12:50;7.20;82.40
76168;DHT22;64927;48.214;16.378;2022-12-05T14:34:32;7.20;82.80
76168;DHT22;64927;48.214;16.378;2022-12-05T14:39:59;7.20;83.10
76168;DHT22;64927;48.214;16.378;2022-12-05T14:48:05;7.40;82.50
76168;DHT22;64927;48.214;16.378;2022-12-05T14:50:53;7.30;82.50
76168;DHT22;64927;48.214;16.378;2022-12-05T14:55:47;7.40;82.70
76168;DHT22;64927;48.214;16.378;2022-12-05T14:58:21;7.50;82.60
76168;DHT22;64927;48.214;16.378;2022-12-05T15:01:02;7.60;82.00
76168;DHT22;64927;48.214;16.378;2022-12-05T15:03:33;7.60;81.40
76168;DHT22;64927;48.214;16.378;2022-12-05T15:06:02;7.70;81.40
76168;DHT22;64927;48.214;16.378;2022-12-05T15:08:33;7.70;81.40
76168;DHT22;64927;48.214;16.378;2022-12-05T15:11:05;7.80;80.80
76168;DHT22;64927;48.214;16.378;2022-12-05T15:13:31;7.70;81.50
76168;DHT22;64927;48.214;16.378;2022-12-05T15:16:06;7.80;80.80
76168;DHT22;64927;48.214;16.378;2022-12-05T15:18:37;7.90;80.60
76168;DHT22;64927;48.214;16.378;2022-12-05T15:21:09;7.90;80.60
76168;DHT22;64927;48.214;16.378;2022-12-05T15:23:46;8.00;80.70
76168;DHT22;64927;48.214;16.378;2022-12-05T15:31:59;7.90;79.20
76168;DHT22;64927;48.214;16.378;2022-12-05T15:34:40;7.70;78.60
76168;DHT22;64927;48.214;16.378;2022-12-05T15:42:26;7.40;77.80
76168;DHT22;64927;48.214;16.378;2022-12-05T15:50:42;7.10;78.70
76168;DHT22;64927;48.214;16.378;2022-12-05T15:53:14;7.10;77.90
76168;DHT22;64927;48.214;16.378;2022-12-05T15:58:24;7.20;78.30
76168;DHT22;64927;48.214;16.378;2022-12-05T16:01:11;7.30;78.20
76168;DHT22;64927;48.214;16.378;2022-12-05T16:06:32;7.40;77.30
76168;DHT22;64927;48.214;16.378;2022-12-05T16:08:58;7.30;77.70
76168;DHT22;64927;48.214;16.378;2022-12-05T16:11:27;7.30;76.70
76168;DHT22;64927;48.214;16.378;2022-12-05T16:14:00;7.30;76.80
76168;DHT22;64927;48.214;16.378;2022-12-05T16:16:29;7.30;76.80
76168;DHT22;64927;48.214;16.378;2022-12-05T16:19:02;7.20;76.70
76168;DHT22;64927;48.214;16.378;2022-12-05T16:21:36;7.30;76.70
76168;DHT22;64927;48.214;16.378;2022-12-05T16:26:40;7.40;75.80
76168;DHT22;64927;48.214;16.378;2022-12-05T16:29:07;7.40;75.50
76168;DHT22;64927;48.214;16.378;2022-12-05T16:31:53;7.40;75.30
76168;DHT22;64927;48.214;16.378;2022-12-05T16:34:22;7.40;75.00
76168;DHT22;64927;48.214;16.378;2022-12-05T16:36:52;7.60;75.00
76168;DHT22;64927;48.214;16.378;2022-12-05T16:39:19;7.60;74.40
76168;DHT22;64927;48.214;16.378;2022-12-05T16:41:45;7.60;73.90
76168;DHT22;64927;48.214;16.378;2022-12-05T16:47:01;7.50;73.70
76168;DHT22;64927;48.214;16.378;2022-12-05T16:49:33;7.60;74.00
76168;DHT22;64927;48.214;16.378;2022-12-05T16:52:12;7.60;73.70
76168;DHT22;64927;48.214;16.378;2022-12-05T16:54:44;7.70;73.30
76168;DHT22;64927;48.214;16.378;2022-12-05T16:57:12;7.70;72.60
76168;DHT22;64927;48.214;16.378;2022-12-05T16:59:39;7.60;72.20
76168;DHT22;64927;48.214;16.378;2022-12-05T17:02:17;7.60;73.00
76168;DHT22;64927;48.214;16.378;2022-12-05T17:04:43;7.60;72.80
76168;DHT22;64927;48.214;16.378;2022-12-05T17:07:11;7.60;72.70
76168;DHT22;64927;48.214;16.378;2022-12-05T17:09:36;7.60;72.70
76168;DHT22;64927;48.214;16.378;2022-12-05T17:12:22;7.70;73.10
76168;DHT22;64927;48.214;16.378;2022-12-05T17:14:50;7.70;72.80
76168;DHT22;64927;48.214;16.378;2022-12-05T17:17:15;7.60;72.50
76168;DHT22;64927;48.214;16.378;2022-12-05T17:19:42;7.60;72.50
76168;DHT22;64927;48.214;16.378;2022-12-05T17:22:11;7.70;72.60
76168;DHT22;64927;48.214;16.378;2022-12-05T17:24:38;7.70;72.60
76168;DHT22;64927;48.214;16.378;2022-12-05T17:27:05;7.80;72.70
76168;DHT22;64927;48.214;16.378;2022-12-05T17:29:35;7.80;72.50
76168;DHT22;64927;48.214;16.378;2022-12-05T17:32:04;7.90;72.30
76168;DHT22;64927;48.214;16.378;2022-12-05T17:34:29;7.90;72.10
76168;DHT22;64927;48.214;16.378;2022-12-05T17:36:55;8.00;72.60
76168;DHT22;64927;48.214;16.378;2022-12-05T17:39:21;8.10;73.20
76168;DHT22;64927;48.214;16.378;2022-12-05T17:41:48;8.10;71.90
76168;DHT22;64927;48.214;16.378;2022-12-05T17:44:14;8.10;71.30
76168;DHT22;64927;48.214;16.378;2022-12-05T17:46:44;8.20;71.80
76168;DHT22;64927;48.214;16.378;2022-12-05T17:49:15;8.20;71.50
76168;DHT22;64927;48.214;16.378;2022-12-05T17:51:42;8.20;70.90
76168;DHT22;64927;48.214;16.378;2022-12-05T17:54:08;8.20;71.00
76168;DHT22;64927;48.214;16.378;2022-12-05T17:56:37;8.10;70.20
76168;DHT22;64927;48.214;16.378;2022-12-05T17:59:03;8.10;70.70
76168;DHT22;64927;48.214;16.378;2022-12-05T18:01:29;8.30;70.60
76168;DHT22;64927;48.214;16.378;2022-12-05T18:03:55;8.30;70.20
76168;DHT22;64927;48.214;16.378;2022-12-05T18:06:23;8.30;70.10
76168;DHT22;64927;48.214;16.378;2022-12-05T18:08:53;8.30;70.00
76168;DHT22;64927;48.214;16.378;2022-12-05T18:11:19;8.40;70.00
76168;DHT22;64927;48.214;16.378;2022-12-05T18:13:47;8.40;69.80
76168;DHT22;64927;48.214;16.378;2022-12-05T18:16:13;8.40;70.30
76168;DHT22;64927;48.214;16.378;2022-12-05T18:18:39;8.50;69.90
76168;DHT22;64927;48.214;16.378;2022-12-05T18:21:10;8.50;69.30
76168;DHT22;64927;48.214;16.378;2022-12-05T18:23:36;8.40;68.80
76168;DHT22;64927;48.214;16.378;2022-12-05T18:26:04;8.40;69.50
76168;DHT22;64927;48.214;16.378;2022-12-05T18:28:33;8.50;69.40
76168;DHT22;64927;48.214;16.378;2022-12-05T18:31:09;8.30;68.90
76168;DHT22;64927;48.214;16.378;2022-12-05T18:33:35;8.30;69.70
76168;DHT22;64927;48.214;16.378;2022-12-05T18:36:10;8.40;69.40
76168;DHT22;64927;48.214;16.378;2022-12-05T18:38:36;8.40;69.40
76168;DHT22;64927;48.214;16.378;2022-12-05T18:41:07;8.30;69.20
76168;DHT22;64927;48.214;16.378;2022-12-05T18:43:33;8.40;69.40
76168;DHT22;64927;48.214;16.378;2022-12-05T18:46:01;8.40;69.70
76168;DHT22;64927;48.214;16.378;2022-12-05T18:48:30;8.40;69.60
76168;DHT22;64927;48.214;16.378;2022-12-05T18:51:12;8.40;69.70
76168;DHT22;64927;48.214;16.378;2022-12-05T18:53:40;8.50;69.20
76168;DHT22;64927;48.214;16.378;2022-12-05T18:56:16;8.60;69.30
76168;DHT22;64927;48.214;16.378;2022-12-05T18:58:43;8.50;69.80
76168;DHT22;64927;48.214;16.378;2022-12-05T19:01:11;8.40;67.90